Aérodrome :
LOGIN :

S'inscrire | Disclaimer

   EN    FR    IT 

 










Légende :    VFR   VFR Marginal   IFR   IFR Intensif   IFR Très Intensif
Visi : 
Plafond : 
>= 8 km
>= 3000ft
5 à 8 km
1000 à 3000 ft
1500m à 5 km
500 à 1000 ft
800 à 1500m
200 à 500 ft
< 800m
< 200 ft
Symboles :   Orages  Brouillard  Fortes neiges  Fortes précipitations  Vent > 20 kt
SIGMETs :   Divers  Orages  Givrage  Turbulence  Onde Orograph.  Cendres Volcan.






- Altitude de l'aérodrome : 215 ft
- Code IATA : ABZ


EGPD - Aberdeen / Dyce

DERNIER METAR :
  • 261120Z AUTO 28012KT 9999 FEW030 05/M01 Q0995

METARs EXPIRÉS :
  • 261050Z AUTO 28011KT 240V310 9999 NCD 04/M01 Q0995
  • 261020Z AUTO 28010KT 9999 NCD 03/M02 Q0995 NOSIG
  • 260950Z AUTO 27008KT 9999 NCD 03/M02 Q0995
  • 260920Z AUTO 28010KT 9999 NCD 03/M02 Q0994 NOSIG
  • 260850Z AUTO 29009KT 9999 NCD 02/M02 Q0994

TAF TAF EGPD
Valide du 26 à 12h jusqu'au 27 à 12h UTC


261102Z 2612/2712 27007KT 9999 FEW020
PROB40
TEMPO 2612/2615 28015G25KT



MET'MAP, la Météo Aéronautique d'un coup d'oeil ! - Copyright ORBIFLY Décembre 2007 - Disclaimer

ORBIFLY MET'MAP TEAM :

Programmation & Développement : Alexandra Zaïnal
Sur une idée originale de : Baudouin d'Aumeries
Assistance à la programmation : Marc-Olivier Méhu
Soutien technique & logistique : Manuel Goepfert

Contact : metmap@orbifly.com




SOURCES & CREDITS :

   NOAA